createdAt,value
2022-12-09T00:02:54.828Z,99970.41
2022-12-09T00:05:57.833Z,99972.31
2022-12-09T00:09:00.383Z,99948.34
2022-12-09T00:12:03.188Z,99969.06
2022-12-09T00:15:06.034Z,99943.97
2022-12-09T00:18:09.727Z,99950.38
2022-12-09T00:21:17.636Z,99933.72
2022-12-09T00:24:20.467Z,99956.69
2022-12-09T00:27:23.065Z,99954.66
2022-12-09T00:30:26.197Z,99977.53
2022-12-09T00:33:30.903Z,99966.72
2022-12-09T00:36:34.571Z,99966.16
2022-12-09T00:39:37.033Z,99964.56
2022-12-09T00:42:39.886Z,99962.09
2022-12-09T00:45:42.415Z,99965.97
2022-12-09T00:48:46.146Z,99990.22
2022-12-09T00:51:48.936Z,99969.81
2022-12-09T00:54:52.126Z,99980.31
2022-12-09T00:57:54.615Z,99973.59
2022-12-09T01:00:58.154Z,99973.69
2022-12-09T01:04:02.533Z,99982.00
2022-12-09T01:07:05.592Z,99990.25
2022-12-09T01:10:08.763Z,99985.31
2022-12-09T01:13:14.427Z,99977.31
2022-12-09T01:16:25.109Z,99980.88
2022-12-09T01:19:28.351Z,99988.31
2022-12-09T01:22:31.000Z,99993.53
2022-12-09T01:25:33.771Z,99984.16
2022-12-09T01:28:37.856Z,99965.13
2022-12-09T01:31:40.811Z,99973.41
2022-12-09T01:34:43.255Z,99957.13
2022-12-09T01:37:45.874Z,99979.72
2022-12-09T01:40:48.377Z,99976.44
2022-12-09T01:44:07.676Z,99972.38
2022-12-09T01:47:22.834Z,99961.09
2022-12-09T01:50:27.278Z,99959.75
2022-12-09T01:53:34.735Z,99959.22
2022-12-09T01:56:39.287Z,99955.97
2022-12-09T01:59:42.474Z,99965.56
2022-12-09T02:02:48.761Z,99964.38
2022-12-09T02:05:52.968Z,99946.50
2022-12-09T02:08:56.415Z,99966.06
2022-12-09T02:12:13.037Z,99969.38
2022-12-09T02:15:22.600Z,99968.56
2022-12-09T02:18:38.699Z,99952.59
2022-12-09T02:21:49.627Z,99959.53
2022-12-09T02:25:11.383Z,99930.84
2022-12-09T02:28:46.081Z,99943.28
2022-12-09T02:32:15.794Z,99944.69
2022-12-09T02:35:55.670Z,99931.69
2022-12-09T02:39:00.341Z,99948.50
2022-12-09T02:42:07.090Z,99938.63
2022-12-09T02:45:12.397Z,99925.06
2022-12-09T02:48:18.597Z,99945.22
2022-12-09T02:51:24.159Z,99919.81
2022-12-09T02:54:30.010Z,99924.25
2022-12-09T02:57:36.048Z,99940.25
2022-12-09T03:00:40.994Z,99936.97
2022-12-09T03:03:43.726Z,99929.25
2022-12-09T03:06:53.117Z,99935.53
2022-12-09T03:10:23.608Z,99921.47
2022-12-09T03:13:47.011Z,99936.06
2022-12-09T03:16:55.658Z,99930.81
2022-12-09T03:20:09.117Z,99917.59
2022-12-09T03:23:15.604Z,99927.47
2022-12-09T03:26:18.957Z,99930.50
2022-12-09T03:29:25.027Z,99953.34
2022-12-09T03:32:29.069Z,99950.91
2022-12-09T03:35:45.207Z,99953.84
2022-12-09T03:38:49.638Z,99933.53
2022-12-09T03:41:57.321Z,99943.41
2022-12-09T03:45:05.655Z,99929.62
2022-12-09T03:48:09.725Z,99934.59
2022-12-09T03:51:35.218Z,99942.31
2022-12-09T03:54:44.702Z,99939.84
2022-12-09T03:57:51.645Z,99924.59
2022-12-09T04:00:54.285Z,99925.66
2022-12-09T04:03:58.112Z,99942.50
2022-12-09T04:07:01.174Z,99922.13
2022-12-09T04:10:05.680Z,99935.13
2022-12-09T04:13:08.567Z,99938.63
2022-12-09T04:16:11.226Z,99918.22
2022-12-09T04:19:13.728Z,99929.00
2022-12-09T04:22:16.373Z,99895.31
2022-12-09T04:25:18.844Z,99900.78
2022-12-09T04:28:21.655Z,99919.63
2022-12-09T04:31:24.254Z,99920.25
2022-12-09T04:34:27.054Z,99914.19
2022-12-09T04:37:29.512Z,99900.13
2022-12-09T04:40:32.581Z,99907.53
2022-12-09T04:43:35.715Z,99912.34
2022-12-09T04:46:38.673Z,99916.38
2022-12-09T04:49:41.023Z,99912.59
2022-12-09T04:52:44.005Z,99888.59
2022-12-09T04:55:46.314Z,99910.94
2022-12-09T04:58:50.771Z,99916.69
2022-12-09T05:01:53.501Z,99920.31
2022-12-09T05:04:56.309Z,99899.31
2022-12-09T05:07:59.555Z,99925.81
2022-12-09T05:11:02.730Z,99919.72
2022-12-09T05:14:05.469Z,99913.41
2022-12-09T05:17:08.753Z,99881.44
2022-12-09T05:20:11.889Z,99905.97
2022-12-09T05:23:14.971Z,99894.91
2022-12-09T05:26:20.108Z,99925.22
2022-12-09T05:29:23.624Z,99905.38
2022-12-09T05:32:29.204Z,99897.19
2022-12-09T05:35:35.451Z,99909.59
2022-12-09T05:38:43.683Z,99910.94
2022-12-09T05:41:47.337Z,99891.66
2022-12-09T05:44:49.906Z,99906.88
2022-12-09T05:47:52.845Z,99911.53
2022-12-09T05:51:00.044Z,99887.53
2022-12-09T05:54:04.724Z,99879.59
2022-12-09T05:57:07.471Z,99897.81
2022-12-09T06:00:11.724Z,99894.56
2022-12-09T06:03:14.719Z,99892.91
2022-12-09T06:06:20.639Z,99880.75
2022-12-09T06:09:23.436Z,99863.97
2022-12-09T06:12:26.297Z,99887.19
2022-12-09T06:15:33.100Z,99867.84
2022-12-09T06:18:37.107Z,99885.53
2022-12-09T06:21:40.939Z,99889.91
2022-12-09T06:24:43.852Z,99887.69
2022-12-09T06:27:46.295Z,99885.47
2022-12-09T06:30:48.943Z,99868.97
2022-12-09T06:33:56.521Z,99876.22
2022-12-09T06:37:00.288Z,99877.34
2022-12-09T06:40:02.761Z,99874.88
2022-12-09T06:43:05.708Z,99864.37
2022-12-09T06:46:13.857Z,99882.00
2022-12-09T06:49:16.624Z,99881.75
2022-12-09T06:52:19.046Z,99863.28
2022-12-09T06:55:22.186Z,99858.56
2022-12-09T06:58:24.975Z,99872.66
2022-12-09T07:01:27.756Z,99875.41
2022-12-09T07:04:30.478Z,99878.75
2022-12-09T07:07:33.330Z,99877.66
2022-12-09T07:10:36.870Z,99874.62
2022-12-09T07:13:39.955Z,99863.94
2022-12-09T07:16:43.133Z,99865.28
2022-12-09T07:19:47.263Z,99863.09
2022-12-09T07:22:49.716Z,99859.53
2022-12-09T07:25:58.766Z,99867.78
2022-12-09T07:29:03.870Z,99833.09
2022-12-09T07:32:09.902Z,99857.88
2022-12-09T07:35:12.709Z,99862.00
2022-12-09T07:38:15.860Z,99864.44
2022-12-09T07:41:18.572Z,99860.03
2022-12-09T07:44:21.653Z,99863.06
2022-12-09T07:47:24.196Z,99838.00
2022-12-09T07:50:28.459Z,99854.03
2022-12-09T07:53:33.929Z,99860.66
2022-12-09T07:56:37.907Z,99848.53
2022-12-09T07:59:40.371Z,99859.53
2022-12-09T08:02:42.939Z,99850.75
2022-12-09T08:05:50.320Z,99855.69
2022-12-09T08:08:53.953Z,99850.50
2022-12-09T08:11:56.790Z,99846.91
2022-12-09T08:14:59.157Z,99843.06
2022-12-09T08:18:02.496Z,99848.59
2022-12-09T08:21:08.970Z,99826.56
2022-12-09T08:24:12.839Z,99816.13
2022-12-09T08:27:15.680Z,99818.31
2022-12-09T08:30:19.043Z,99833.47
2022-12-09T08:33:22.972Z,99812.53
2022-12-09T08:36:28.380Z,99828.25
2022-12-09T08:39:31.775Z,99827.44
2022-12-09T08:42:35.238Z,99808.16
2022-12-09T08:45:39.953Z,99818.34
2022-12-09T08:48:43.758Z,99819.72
2022-12-09T08:51:48.387Z,99813.97
2022-12-09T08:54:52.331Z,99813.94
2022-12-09T08:57:54.816Z,99803.47
2022-12-09T09:00:58.098Z,99800.16
2022-12-09T09:04:06.415Z,99802.91
2022-12-09T09:07:09.849Z,99797.97
2022-12-09T09:10:13.344Z,99792.19
2022-12-09T09:13:16.488Z,99794.13
2022-12-09T09:16:21.939Z,99783.09
2022-12-09T09:19:26.297Z,99783.97
2022-12-09T09:22:29.867Z,99779.81
2022-12-09T09:25:33.138Z,99769.91
2022-12-09T09:28:35.639Z,99769.09
2022-12-09T09:32:09.042Z,99771.00
2022-12-09T09:35:18.279Z,99774.84
2022-12-09T09:38:21.363Z,99766.06
2022-12-09T09:41:38.607Z,99742.37
2022-12-09T09:44:46.237Z,99761.09
2022-12-09T09:48:19.150Z,99752.28
2022-12-09T09:51:22.783Z,99752.84
2022-12-09T09:54:26.185Z,99734.66
2022-12-09T09:57:40.434Z,99736.88
2022-12-09T10:01:02.439Z,99728.09
2022-12-09T10:04:20.758Z,99737.16
2022-12-09T10:07:28.124Z,99731.34
2022-12-09T10:10:55.639Z,99707.69
2022-12-09T10:14:23.289Z,99716.22
2022-12-09T10:17:35.688Z,99706.03
2022-12-09T10:20:40.779Z,99695.03
2022-12-09T10:23:45.276Z,99679.06
2022-12-09T10:27:18.628Z,99651.81
2022-12-09T10:30:22.462Z,99664.44
2022-12-09T10:33:30.943Z,99670.78
2022-12-09T10:36:36.576Z,99636.66
2022-12-09T10:39:39.492Z,99625.66
2022-12-09T10:43:08.826Z,99629.47
2022-12-09T10:46:18.406Z,99618.47
2022-12-09T10:49:22.933Z,99594.28
2022-12-09T10:52:36.303Z,99595.88
2022-12-09T10:55:42.833Z,99584.06
2022-12-09T10:58:45.354Z,99582.37
2022-12-09T11:01:54.819Z,99553.00
2022-12-09T11:05:21.755Z,99568.66
2022-12-09T11:08:25.114Z,99555.47
2022-12-09T11:11:48.801Z,99575.50
2022-12-09T11:15:12.676Z,99565.03
2022-12-09T11:18:20.253Z,99546.84
2022-12-09T11:21:35.885Z,99519.09
2022-12-09T11:24:38.623Z,99543.84
2022-12-09T11:27:59.847Z,99536.41
2022-12-09T11:31:28.891Z,99526.50
2022-12-09T11:34:31.889Z,99516.94
2022-12-09T11:37:39.594Z,99549.63
2022-12-09T11:40:42.325Z,99530.06
2022-12-09T11:43:46.217Z,99509.44
2022-12-09T11:47:01.052Z,99538.56
2022-12-09T11:50:06.322Z,99522.63
2022-12-09T11:53:12.328Z,99514.09
2022-12-09T11:56:25.806Z,99503.38
2022-12-09T11:59:38.424Z,99504.72
2022-12-09T12:02:57.496Z,99515.75
2022-12-09T12:06:03.992Z,99517.69
2022-12-09T12:09:24.034Z,99490.50
2022-12-09T12:12:46.196Z,99494.00
2022-12-09T12:15:51.551Z,99486.78
2022-12-09T12:19:04.750Z,99492.03
2022-12-09T12:22:37.339Z,99494.28
2022-12-09T12:25:48.934Z,99491.28
2022-12-09T12:28:58.994Z,99486.03
2022-12-09T12:32:27.631Z,99488.81
2022-12-09T12:35:39.182Z,99467.09
2022-12-09T12:38:50.446Z,99463.19
2022-12-09T12:42:30.085Z,99470.38
2022-12-09T12:46:09.976Z,99461.03
2022-12-09T12:49:30.836Z,99460.19
2022-12-09T12:52:56.843Z,99451.09
2022-12-09T12:56:11.735Z,99445.63
2022-12-09T13:00:01.378Z,99430.78
2022-12-09T13:03:19.795Z,99458.78
2022-12-09T13:06:48.099Z,99444.22
2022-12-09T13:09:58.014Z,99428.63
2022-12-09T13:13:04.149Z,99435.47
2022-12-09T13:16:27.762Z,99438.75
2022-12-09T13:19:52.822Z,99438.50
2022-12-09T13:23:06.892Z,99415.91
2022-12-09T13:26:26.375Z,99430.75
2022-12-09T13:29:37.452Z,99431.88
2022-12-09T13:33:09.907Z,99432.16
2022-12-09T13:36:22.780Z,99436.34
2022-12-09T13:39:40.508Z,99430.84
2022-12-09T13:42:58.579Z,99421.78
2022-12-09T13:46:02.283Z,99421.00
2022-12-09T13:49:18.115Z,99412.75
2022-12-09T13:52:41.206Z,99398.47
2022-12-09T13:56:06.814Z,99408.38
2022-12-09T13:59:28.082Z,99406.13
2022-12-09T14:02:50.239Z,99406.94
2022-12-09T14:05:56.557Z,99404.72
2022-12-09T14:09:04.226Z,99404.41
2022-12-09T14:12:26.745Z,99410.47
2022-12-09T14:15:29.379Z,99404.97
2022-12-09T14:18:33.465Z,99390.41
2022-12-09T14:21:35.763Z,99385.78
2022-12-09T14:24:38.685Z,99382.47
2022-12-09T14:28:09.936Z,99381.91
2022-12-09T14:31:12.575Z,99374.28
2022-12-09T14:34:26.856Z,99384.69
2022-12-09T14:38:00.543Z,99378.09
2022-12-09T14:41:14.859Z,99376.41
2022-12-09T14:44:27.026Z,99366.00
2022-12-09T14:47:33.089Z,99356.09
2022-12-09T14:50:38.713Z,99348.06
2022-12-09T14:53:41.227Z,99334.34
2022-12-09T14:56:50.594Z,99345.63
2022-12-09T14:59:55.630Z,99339.22
2022-12-09T15:03:30.686Z,99330.69
2022-12-09T15:06:21.484Z,99312.50
2022-12-09T15:09:24.054Z,99310.88
2022-12-09T15:12:31.460Z,99302.97
2022-12-09T15:15:38.339Z,99309.25
2022-12-09T15:18:43.374Z,99296.41
2022-12-09T15:21:48.495Z,99323.78
2022-12-09T15:24:51.660Z,99287.28
2022-12-09T15:28:11.873Z,99304.22
2022-12-09T15:31:18.700Z,99300.41
2022-12-09T15:34:26.573Z,99293.78
2022-12-09T15:37:29.255Z,99263.28
2022-12-09T15:40:34.733Z,99282.22
2022-12-09T15:43:38.944Z,99260.84
2022-12-09T15:46:44.087Z,99282.00
2022-12-09T15:49:56.267Z,99272.31
2022-12-09T15:53:17.213Z,99249.78
2022-12-09T15:56:28.328Z,99239.59
2022-12-09T15:59:36.435Z,99242.22
2022-12-09T16:02:40.398Z,99247.13
2022-12-09T16:05:43.368Z,99245.16
2022-12-09T16:08:45.642Z,99241.06
2022-12-09T16:11:53.920Z,99239.91
2022-12-09T16:14:56.264Z,99235.47
2022-12-09T16:18:02.931Z,99232.66
2022-12-09T16:21:28.796Z,99208.78
2022-12-09T16:24:57.864Z,99221.13
2022-12-09T16:28:00.266Z,99217.75
2022-12-09T16:31:16.672Z,99189.78
2022-12-09T16:34:21.504Z,99186.59
2022-12-09T16:37:37.614Z,99205.63
2022-12-09T16:40:45.882Z,99186.19
2022-12-09T16:43:57.634Z,99200.37
2022-12-09T16:47:14.452Z,99188.28
2022-12-09T16:50:17.240Z,99188.94
2022-12-09T16:53:23.560Z,99178.75
2022-12-09T16:56:29.040Z,99171.38
2022-12-09T16:59:37.604Z,99140.09
2022-12-09T17:02:46.023Z,99152.31
2022-12-09T17:05:48.739Z,99150.41
2022-12-09T17:08:51.757Z,99150.75
2022-12-09T17:11:54.006Z,99123.09
2022-12-09T17:14:56.626Z,99133.22
2022-12-09T17:17:59.018Z,99130.22
2022-12-09T17:21:04.030Z,99135.69
2022-12-09T17:24:06.807Z,99129.91
2022-12-09T17:27:09.448Z,99120.81
2022-12-09T17:30:12.397Z,99113.12
2022-12-09T17:33:14.962Z,99113.19
2022-12-09T17:36:18.511Z,99104.63
2022-12-09T17:39:21.829Z,99094.44
2022-12-09T17:42:24.093Z,99101.06
2022-12-09T17:45:27.306Z,99081.38
2022-12-09T17:48:30.934Z,99099.13
2022-12-09T17:51:36.350Z,99105.75
2022-12-09T17:54:39.360Z,99089.56
2022-12-09T17:57:41.911Z,99089.00
2022-12-09T18:00:44.284Z,99098.50
2022-12-09T18:03:56.607Z,99088.66
2022-12-09T18:07:00.091Z,99076.59
2022-12-09T18:10:04.072Z,99076.81
2022-12-09T18:13:06.460Z,99070.50
2022-12-09T18:16:10.421Z,99059.28
2022-12-09T18:19:18.179Z,99059.50
2022-12-09T18:22:20.742Z,99049.66
2022-12-09T18:25:23.013Z,99039.84
2022-12-09T18:28:29.914Z,99046.44
2022-12-09T18:31:32.238Z,99052.16
2022-12-09T18:34:35.743Z,99049.41
2022-12-09T19:28:48.275Z,98993.16
2022-12-09T19:31:52.289Z,99004.69
2022-12-09T19:34:54.633Z,98995.37
2022-12-09T19:38:01.227Z,99005.25
2022-12-09T19:41:04.074Z,99004.81
2022-12-09T19:44:07.102Z,99002.00
2022-12-09T19:47:09.407Z,98979.47
2022-12-09T19:50:12.315Z,98986.59
2022-12-09T19:53:14.566Z,98964.59
2022-12-09T19:56:18.819Z,98974.47
2022-12-09T19:59:21.070Z,98959.91
2022-12-09T20:02:23.678Z,98946.94
2022-12-09T20:05:26.264Z,98926.72
2022-12-09T20:08:28.647Z,98950.00
2022-12-09T20:11:34.361Z,98942.84
2022-12-09T20:14:36.653Z,98948.87
2022-12-09T20:17:39.242Z,98943.69
2022-12-09T20:20:45.699Z,98932.06
2022-12-09T20:23:53.602Z,98939.81
2022-12-09T20:26:56.084Z,98945.75
2022-12-09T20:29:58.650Z,98934.16
2022-12-09T20:33:01.807Z,98923.16
2022-12-09T20:36:17.846Z,98919.28
2022-12-09T20:39:21.186Z,98909.91
2022-12-09T20:42:23.689Z,98900.81
2022-12-09T20:45:26.105Z,98897.25
2022-12-09T20:48:29.678Z,98888.50
2022-12-09T20:51:36.470Z,98891.75
2022-12-09T20:54:39.101Z,98877.75
2022-12-09T20:57:41.391Z,98881.78
2022-12-09T21:00:44.157Z,98879.56
2022-12-09T21:03:47.948Z,98865.84
2022-12-09T21:06:50.809Z,98876.06
2022-12-09T21:09:53.024Z,98889.97
2022-12-09T21:12:55.601Z,98880.63
2022-12-09T21:16:32.319Z,98877.84
2022-12-09T21:19:34.941Z,98879.75
2022-12-09T21:22:37.227Z,98877.56
2022-12-09T21:25:39.787Z,98874.63
2022-12-09T21:28:43.429Z,98873.00
2022-12-09T21:31:48.301Z,98888.97
2022-12-09T21:34:50.781Z,98879.31
2022-12-09T21:37:56.228Z,98884.75
2022-12-09T21:41:05.653Z,98874.31
2022-12-09T21:44:09.829Z,98879.22
2022-12-09T21:47:12.402Z,98883.63
2022-12-09T21:50:15.018Z,98890.69
2022-12-09T21:53:17.801Z,98879.28
2022-12-09T21:56:25.701Z,98874.31
2022-12-09T21:59:27.945Z,98883.50
2022-12-09T22:02:30.472Z,98872.78
2022-12-09T22:05:33.662Z,98879.09
2022-12-09T22:08:37.007Z,98878.91
2022-12-09T22:11:39.935Z,98872.06
2022-12-09T22:14:42.235Z,98859.63
2022-12-09T22:17:44.810Z,98865.41
2022-12-09T22:21:23.180Z,98868.72
2022-12-09T22:24:11.313Z,98865.41
2022-12-09T22:27:13.815Z,98864.59
2022-12-09T22:30:16.433Z,98868.41
2022-12-09T22:33:18.661Z,98866.22
2022-12-09T22:36:22.972Z,98870.84
2022-12-09T22:39:25.238Z,98858.19
2022-12-09T22:42:31.587Z,98857.91
2022-12-09T22:45:36.008Z,98864.00
2022-12-09T22:48:39.829Z,98857.97
2022-12-09T22:51:42.923Z,98861.56
2022-12-09T22:54:45.458Z,98867.91
2022-12-09T22:57:47.708Z,98866.44
2022-12-09T23:00:50.438Z,98865.31
2022-12-09T23:03:54.465Z,98861.16
2022-12-09T23:06:57.154Z,98862.78
2022-12-09T23:09:59.949Z,98865.25
2022-12-09T23:13:02.519Z,98873.22
2022-12-09T23:16:06.420Z,98872.41
2022-12-09T23:19:10.037Z,98866.66
2022-12-09T23:22:12.375Z,98867.13
2022-12-09T23:25:15.072Z,98848.09
2022-12-09T23:28:17.793Z,98849.78
2022-12-09T23:31:23.188Z,98845.66
2022-12-09T23:34:25.514Z,98842.31
2022-12-09T23:37:28.089Z,98855.69
2022-12-09T23:40:30.320Z,98849.34
2022-12-09T23:43:34.584Z,98854.78
2022-12-09T23:46:37.601Z,98861.22
2022-12-09T23:49:40.331Z,98864.50
2022-12-09T23:52:42.532Z,98869.16
2022-12-09T23:55:45.336Z,98866.72
2022-12-09T23:58:52.545Z,98859.06
